sensor_id;sensor_type;location;lat;lon;timestamp;temperature;humidity
578;DHT22;275;48.492;9.214;2023-02-28T00:01:06;0.60;28.20
578;DHT22;275;48.492;9.214;2023-02-28T00:03:33;0.60;28.30
578;DHT22;275;48.492;9.214;2023-02-28T00:06:01;0.80;27.90
578;DHT22;275;48.492;9.214;2023-02-28T00:08:28;1.20;27.20
578;DHT22;275;48.492;9.214;2023-02-28T00:10:55;1.20;27.30
578;DHT22;275;48.492;9.214;2023-02-28T00:13:21;0.80;27.90
578;DHT22;275;48.492;9.214;2023-02-28T00:15:59;0.90;28.10
578;DHT22;275;48.492;9.214;2023-02-28T00:18:27;0.90;27.90
578;DHT22;275;48.492;9.214;2023-02-28T00:20:53;1.10;27.80
578;DHT22;275;48.492;9.214;2023-02-28T00:23:20;0.90;28.40
578;DHT22;275;48.492;9.214;2023-02-28T00:25:48;0.90;28.40
578;DHT22;275;48.492;9.214;2023-02-28T00:28:15;1.00;28.20
578;DHT22;275;48.492;9.214;2023-02-28T00:30:43;1.00;28.20
578;DHT22;275;48.492;9.214;2023-02-28T00:33:10;0.90;28.40
578;DHT22;275;48.492;9.214;2023-02-28T00:35:38;0.80;28.60
578;DHT22;275;48.492;9.214;2023-02-28T00:38:05;0.70;28.80
578;DHT22;275;48.492;9.214;2023-02-28T00:40:32;0.70;28.70
578;DHT22;275;48.492;9.214;2023-02-28T00:42:59;1.00;28.20
578;DHT22;275;48.492;9.214;2023-02-28T00:45:26;0.70;28.80
578;DHT22;275;48.492;9.214;2023-02-28T00:47:52;0.60;28.90
578;DHT22;275;48.492;9.214;2023-02-28T00:50:20;0.50;29.10
578;DHT22;275;48.492;9.214;2023-02-28T00:52:48;0.40;29.50
578;DHT22;275;48.492;9.214;2023-02-28T00:55:15;0.70;29.10
578;DHT22;275;48.492;9.214;2023-02-28T00:57:42;0.80;28.70
578;DHT22;275;48.492;9.214;2023-02-28T01:00:09;0.20;29.90
578;DHT22;275;48.492;9.214;2023-02-28T01:02:36;0.10;30.50
578;DHT22;275;48.492;9.214;2023-02-28T01:05:04;0.30;30.10
578;DHT22;275;48.492;9.214;2023-02-28T01:07:31;0.20;30.60
578;DHT22;275;48.492;9.214;2023-02-28T01:09:59;0.10;31.40
578;DHT22;275;48.492;9.214;2023-02-28T01:12:25;0.50;31.80
578;DHT22;275;48.492;9.214;2023-02-28T01:14:52;0.60;30.60
578;DHT22;275;48.492;9.214;2023-02-28T01:17:19;0.30;31.90
578;DHT22;275;48.492;9.214;2023-02-28T01:19:46;0.00;32.80
578;DHT22;275;48.492;9.214;2023-02-28T01:22:12;0.10;33.80
578;DHT22;275;48.492;9.214;2023-02-28T01:24:39;0.10;33.20
578;DHT22;275;48.492;9.214;2023-02-28T01:27:07;0.20;33.70
578;DHT22;275;48.492;9.214;2023-02-28T01:29:34;0.40;33.20
578;DHT22;275;48.492;9.214;2023-02-28T01:32:01;0.70;32.00
578;DHT22;275;48.492;9.214;2023-02-28T01:34:28;0.60;32.10
578;DHT22;275;48.492;9.214;2023-02-28T01:36:54;0.30;33.10
578;DHT22;275;48.492;9.214;2023-02-28T01:39:24;0.50;32.90
578;DHT22;275;48.492;9.214;2023-02-28T01:41:51;0.50;32.80
578;DHT22;275;48.492;9.214;2023-02-28T01:47:24;0.50;33.40
578;DHT22;275;48.492;9.214;2023-02-28T01:49:52;0.30;33.20
578;DHT22;275;48.492;9.214;2023-02-28T01:52:20;0.10;34.10
578;DHT22;275;48.492;9.214;2023-02-28T01:54:51;0.00;34.60
578;DHT22;275;48.492;9.214;2023-02-28T01:57:20;-0.20;35.30
578;DHT22;275;48.492;9.214;2023-02-28T01:59:52;0.40;34.10
578;DHT22;275;48.492;9.214;2023-02-28T02:02:23;1.00;32.40
578;DHT22;275;48.492;9.214;2023-02-28T02:04:54;0.70;33.10
578;DHT22;275;48.492;9.214;2023-02-28T02:07:22;0.50;33.70
578;DHT22;275;48.492;9.214;2023-02-28T02:09:49;0.40;33.70
578;DHT22;275;48.492;9.214;2023-02-28T02:12:26;0.60;33.30
578;DHT22;275;48.492;9.214;2023-02-28T02:15:01;0.70;32.80
578;DHT22;275;48.492;9.214;2023-02-28T02:17:35;0.30;33.60
578;DHT22;275;48.492;9.214;2023-02-28T02:23:33;-0.30;35.50
578;DHT22;275;48.492;9.214;2023-02-28T02:26:21;0.10;34.50
578;DHT22;275;48.492;9.214;2023-02-28T02:29:13;0.10;34.50
578;DHT22;275;48.492;9.214;2023-02-28T02:32:04;0.20;34.00
578;DHT22;275;48.492;9.214;2023-02-28T02:34:46;0.10;34.40
578;DHT22;275;48.492;9.214;2023-02-28T02:37:22;0.20;34.50
578;DHT22;275;48.492;9.214;2023-02-28T02:40:00;0.60;33.30
578;DHT22;275;48.492;9.214;2023-02-28T02:42:34;0.70;32.90
578;DHT22;275;48.492;9.214;2023-02-28T02:45:07;0.40;33.60
578;DHT22;275;48.492;9.214;2023-02-28T02:47:37;0.40;33.80
578;DHT22;275;48.492;9.214;2023-02-28T02:50:11;0.30;34.10
578;DHT22;275;48.492;9.214;2023-02-28T02:52:43;0.10;34.30
578;DHT22;275;48.492;9.214;2023-02-28T02:55:13;0.00;35.00
578;DHT22;275;48.492;9.214;2023-02-28T02:57:45;0.20;34.50
578;DHT22;275;48.492;9.214;2023-02-28T03:00:13;0.40;34.20
578;DHT22;275;48.492;9.214;2023-02-28T03:02:41;0.70;33.90
578;DHT22;275;48.492;9.214;2023-02-28T03:05:14;0.80;33.30
578;DHT22;275;48.492;9.214;2023-02-28T03:07:42;1.40;32.20
578;DHT22;275;48.492;9.214;2023-02-28T03:10:32;1.60;31.20
578;DHT22;275;48.492;9.214;2023-02-28T03:13:15;1.30;32.10
578;DHT22;275;48.492;9.214;2023-02-28T03:15:57;1.00;32.50
578;DHT22;275;48.492;9.214;2023-02-28T03:18:31;0.90;32.90
578;DHT22;275;48.492;9.214;2023-02-28T03:21:06;1.30;31.80
578;DHT22;275;48.492;9.214;2023-02-28T03:23:38;1.00;32.60
578;DHT22;275;48.492;9.214;2023-02-28T03:26:13;0.70;33.40
578;DHT22;275;48.492;9.214;2023-02-28T03:28:51;0.80;33.60
578;DHT22;275;48.492;9.214;2023-02-28T03:31:21;1.10;32.60
578;DHT22;275;48.492;9.214;2023-02-28T03:33:54;1.10;32.90
578;DHT22;275;48.492;9.214;2023-02-28T03:36:26;1.50;32.10
578;DHT22;275;48.492;9.214;2023-02-28T03:38:59;1.50;31.70
578;DHT22;275;48.492;9.214;2023-02-28T03:41:32;1.20;32.70
578;DHT22;275;48.492;9.214;2023-02-28T03:44:03;1.20;32.70
578;DHT22;275;48.492;9.214;2023-02-28T03:46:34;1.30;33.00
578;DHT22;275;48.492;9.214;2023-02-28T03:49:08;1.00;33.40
578;DHT22;275;48.492;9.214;2023-02-28T03:51:40;1.00;33.70
578;DHT22;275;48.492;9.214;2023-02-28T03:54:11;1.00;33.80
578;DHT22;275;48.492;9.214;2023-02-28T03:56:42;1.10;33.80
578;DHT22;275;48.492;9.214;2023-02-28T03:59:13;1.10;34.00
578;DHT22;275;48.492;9.214;2023-02-28T04:01:43;1.20;33.80
578;DHT22;275;48.492;9.214;2023-02-28T04:04:11;1.10;34.20
578;DHT22;275;48.492;9.214;2023-02-28T04:06:40;0.90;34.40
578;DHT22;275;48.492;9.214;2023-02-28T04:09:09;0.90;34.80
578;DHT22;275;48.492;9.214;2023-02-28T04:11:38;0.80;34.70
578;DHT22;275;48.492;9.214;2023-02-28T04:14:06;0.80;34.60
578;DHT22;275;48.492;9.214;2023-02-28T04:16:35;0.70;35.30
578;DHT22;275;48.492;9.214;2023-02-28T04:19:03;1.00;34.60
578;DHT22;275;48.492;9.214;2023-02-28T04:21:31;1.10;34.20
578;DHT22;275;48.492;9.214;2023-02-28T04:23:59;0.80;35.20
578;DHT22;275;48.492;9.214;2023-02-28T04:26:28;0.60;35.10
578;DHT22;275;48.492;9.214;2023-02-28T04:28:56;0.90;34.80
578;DHT22;275;48.492;9.214;2023-02-28T04:31:23;0.60;35.00
578;DHT22;275;48.492;9.214;2023-02-28T04:33:50;0.80;34.80
578;DHT22;275;48.492;9.214;2023-02-28T04:36:17;1.10;33.60
578;DHT22;275;48.492;9.214;2023-02-28T04:38:45;1.30;33.80
578;DHT22;275;48.492;9.214;2023-02-28T04:41:13;1.20;33.50
578;DHT22;275;48.492;9.214;2023-02-28T04:43:40;1.00;34.10
578;DHT22;275;48.492;9.214;2023-02-28T04:46:07;0.80;34.60
578;DHT22;275;48.492;9.214;2023-02-28T04:48:38;0.90;34.50
578;DHT22;275;48.492;9.214;2023-02-28T04:51:07;0.60;35.50
578;DHT22;275;48.492;9.214;2023-02-28T04:53:34;0.50;35.80
578;DHT22;275;48.492;9.214;2023-02-28T04:56:02;0.90;35.00
578;DHT22;275;48.492;9.214;2023-02-28T04:58:30;0.70;35.30
578;DHT22;275;48.492;9.214;2023-02-28T05:01:02;0.80;35.10
578;DHT22;275;48.492;9.214;2023-02-28T05:03:29;1.10;35.00
578;DHT22;275;48.492;9.214;2023-02-28T05:05:56;1.20;34.00
578;DHT22;275;48.492;9.214;2023-02-28T05:08:22;1.10;34.50
578;DHT22;275;48.492;9.214;2023-02-28T05:10:50;0.90;34.80
578;DHT22;275;48.492;9.214;2023-02-28T05:13:17;1.10;35.60
578;DHT22;275;48.492;9.214;2023-02-28T05:15:45;1.30;34.10
578;DHT22;275;48.492;9.214;2023-02-28T05:18:12;1.20;34.10
578;DHT22;275;48.492;9.214;2023-02-28T05:20:39;1.10;34.90
578;DHT22;275;48.492;9.214;2023-02-28T05:23:06;1.10;34.60
578;DHT22;275;48.492;9.214;2023-02-28T05:25:32;1.00;35.00
578;DHT22;275;48.492;9.214;2023-02-28T05:27:59;0.90;35.30
578;DHT22;275;48.492;9.214;2023-02-28T05:30:26;1.10;35.70
578;DHT22;275;48.492;9.214;2023-02-28T05:32:54;1.20;34.70
578;DHT22;275;48.492;9.214;2023-02-28T05:35:21;1.00;35.50
578;DHT22;275;48.492;9.214;2023-02-28T05:37:48;0.90;35.60
578;DHT22;275;48.492;9.214;2023-02-28T05:40:15;0.60;36.30
578;DHT22;275;48.492;9.214;2023-02-28T05:42:42;0.40;37.00
578;DHT22;275;48.492;9.214;2023-02-28T05:45:10;0.90;36.30
578;DHT22;275;48.492;9.214;2023-02-28T05:47:37;1.20;35.30
578;DHT22;275;48.492;9.214;2023-02-28T05:50:06;1.10;35.40
578;DHT22;275;48.492;9.214;2023-02-28T05:52:34;1.00;35.30
578;DHT22;275;48.492;9.214;2023-02-28T05:55:01;0.90;35.80
578;DHT22;275;48.492;9.214;2023-02-28T05:57:28;1.00;35.60
578;DHT22;275;48.492;9.214;2023-02-28T05:59:55;1.10;35.10
578;DHT22;275;48.492;9.214;2023-02-28T06:02:22;1.30;34.70
578;DHT22;275;48.492;9.214;2023-02-28T06:04:49;1.10;34.40
578;DHT22;275;48.492;9.214;2023-02-28T06:07:17;1.20;34.70
578;DHT22;275;48.492;9.214;2023-02-28T06:09:44;1.40;33.90
578;DHT22;275;48.492;9.214;2023-02-28T06:12:11;1.50;33.80
578;DHT22;275;48.492;9.214;2023-02-28T06:14:37;0.90;34.80
578;DHT22;275;48.492;9.214;2023-02-28T06:17:04;0.90;35.20
578;DHT22;275;48.492;9.214;2023-02-28T06:19:31;1.20;34.40
578;DHT22;275;48.492;9.214;2023-02-28T06:21:59;1.10;34.20
578;DHT22;275;48.492;9.214;2023-02-28T06:24:27;1.40;33.90
578;DHT22;275;48.492;9.214;2023-02-28T06:26:55;1.40;34.10
578;DHT22;275;48.492;9.214;2023-02-28T06:29:24;1.50;34.00
578;DHT22;275;48.492;9.214;2023-02-28T06:31:51;1.20;34.00
578;DHT22;275;48.492;9.214;2023-02-28T06:34:18;1.40;33.80
578;DHT22;275;48.492;9.214;2023-02-28T06:36:44;1.40;33.50
578;DHT22;275;48.492;9.214;2023-02-28T06:39:11;1.30;33.80
578;DHT22;275;48.492;9.214;2023-02-28T06:41:39;1.30;33.70
578;DHT22;275;48.492;9.214;2023-02-28T06:44:11;1.40;33.80
578;DHT22;275;48.492;9.214;2023-02-28T06:46:39;1.20;33.90
578;DHT22;275;48.492;9.214;2023-02-28T06:49:06;1.30;33.80
578;DHT22;275;48.492;9.214;2023-02-28T06:51:35;1.20;34.20
578;DHT22;275;48.492;9.214;2023-02-28T06:54:03;1.70;33.30
578;DHT22;275;48.492;9.214;2023-02-28T06:56:30;2.10;31.90
578;DHT22;275;48.492;9.214;2023-02-28T06:58:58;2.00;32.10
578;DHT22;275;48.492;9.214;2023-02-28T07:01:25;2.10;32.00
578;DHT22;275;48.492;9.214;2023-02-28T07:03:53;1.90;32.10
578;DHT22;275;48.492;9.214;2023-02-28T07:06:21;1.80;31.90
578;DHT22;275;48.492;9.214;2023-02-28T07:08:49;1.60;32.40
578;DHT22;275;48.492;9.214;2023-02-28T07:11:16;1.60;32.60
578;DHT22;275;48.492;9.214;2023-02-28T07:13:43;1.20;32.90
578;DHT22;275;48.492;9.214;2023-02-28T07:16:13;1.30;32.60
578;DHT22;275;48.492;9.214;2023-02-28T07:18:40;0.80;32.80
578;DHT22;275;48.492;9.214;2023-02-28T07:21:08;1.20;32.10
578;DHT22;275;48.492;9.214;2023-02-28T07:23:36;1.40;31.50
578;DHT22;275;48.492;9.214;2023-02-28T07:26:04;1.50;31.10
578;DHT22;275;48.492;9.214;2023-02-28T07:28:32;1.00;32.00
578;DHT22;275;48.492;9.214;2023-02-28T07:31:03;0.80;32.90
578;DHT22;275;48.492;9.214;2023-02-28T07:33:32;1.10;33.00
578;DHT22;275;48.492;9.214;2023-02-28T07:36:03;1.40;31.80
578;DHT22;275;48.492;9.214;2023-02-28T07:38:31;1.50;31.50
578;DHT22;275;48.492;9.214;2023-02-28T07:40:59;1.80;32.60
578;DHT22;275;48.492;9.214;2023-02-28T07:43:26;2.20;30.90
578;DHT22;275;48.492;9.214;2023-02-28T07:45:53;2.60;29.60
578;DHT22;275;48.492;9.214;2023-02-28T07:48:20;2.10;29.70
578;DHT22;275;48.492;9.214;2023-02-28T07:50:55;1.80;31.30
578;DHT22;275;48.492;9.214;2023-02-28T07:53:22;1.80;30.40
578;DHT22;275;48.492;9.214;2023-02-28T07:55:49;1.70;30.40
578;DHT22;275;48.492;9.214;2023-02-28T07:58:16;1.50;31.10
578;DHT22;275;48.492;9.214;2023-02-28T08:00:43;1.10;31.60
578;DHT22;275;48.492;9.214;2023-02-28T08:03:11;1.40;31.10
578;DHT22;275;48.492;9.214;2023-02-28T08:05:39;1.10;31.40
578;DHT22;275;48.492;9.214;2023-02-28T08:08:08;0.80;32.20
578;DHT22;275;48.492;9.214;2023-02-28T08:10:35;0.90;32.60
578;DHT22;275;48.492;9.214;2023-02-28T08:13:01;1.20;31.50
578;DHT22;275;48.492;9.214;2023-02-28T08:15:29;1.70;30.80
578;DHT22;275;48.492;9.214;2023-02-28T08:17:56;1.80;30.10
578;DHT22;275;48.492;9.214;2023-02-28T08:20:23;1.90;31.30
578;DHT22;275;48.492;9.214;2023-02-28T08:22:49;1.70;31.60
578;DHT22;275;48.492;9.214;2023-02-28T08:25:18;1.80;31.60
578;DHT22;275;48.492;9.214;2023-02-28T08:27:44;2.00;30.70
578;DHT22;275;48.492;9.214;2023-02-28T08:30:12;1.90;31.90
578;DHT22;275;48.492;9.214;2023-02-28T08:32:40;2.00;30.10
578;DHT22;275;48.492;9.214;2023-02-28T08:35:07;1.90;30.00
578;DHT22;275;48.492;9.214;2023-02-28T08:37:35;1.90;29.90
578;DHT22;275;48.492;9.214;2023-02-28T08:40:03;1.90;30.10
578;DHT22;275;48.492;9.214;2023-02-28T08:42:32;2.00;29.80
578;DHT22;275;48.492;9.214;2023-02-28T08:44:59;2.00;30.10
578;DHT22;275;48.492;9.214;2023-02-28T08:47:26;1.90;30.00
578;DHT22;275;48.492;9.214;2023-02-28T08:49:53;1.90;30.30
578;DHT22;275;48.492;9.214;2023-02-28T08:52:19;2.30;29.30
578;DHT22;275;48.492;9.214;2023-02-28T08:54:46;2.70;28.80
578;DHT22;275;48.492;9.214;2023-02-28T08:57:13;2.60;28.80
578;DHT22;275;48.492;9.214;2023-02-28T08:59:41;2.40;29.10
578;DHT22;275;48.492;9.214;2023-02-28T09:02:09;2.40;29.20
578;DHT22;275;48.492;9.214;2023-02-28T09:04:36;1.90;29.60
578;DHT22;275;48.492;9.214;2023-02-28T09:07:03;1.90;29.80
578;DHT22;275;48.492;9.214;2023-02-28T09:09:30;1.50;30.20
578;DHT22;275;48.492;9.214;2023-02-28T09:11:57;2.20;29.50
578;DHT22;275;48.492;9.214;2023-02-28T09:14:24;2.40;29.00
578;DHT22;275;48.492;9.214;2023-02-28T09:16:52;1.90;29.50
578;DHT22;275;48.492;9.214;2023-02-28T09:19:19;1.20;31.10
578;DHT22;275;48.492;9.214;2023-02-28T09:21:45;1.20;32.00
578;DHT22;275;48.492;9.214;2023-02-28T09:24:12;1.10;31.30
578;DHT22;275;48.492;9.214;2023-02-28T09:26:40;1.20;31.10
578;DHT22;275;48.492;9.214;2023-02-28T09:29:07;1.10;31.90
578;DHT22;275;48.492;9.214;2023-02-28T09:31:34;1.80;30.60
578;DHT22;275;48.492;9.214;2023-02-28T09:34:03;2.00;29.60
578;DHT22;275;48.492;9.214;2023-02-28T09:36:30;2.10;29.70
578;DHT22;275;48.492;9.214;2023-02-28T09:38:58;2.20;29.50
578;DHT22;275;48.492;9.214;2023-02-28T09:41:26;2.40;29.10
578;DHT22;275;48.492;9.214;2023-02-28T09:43:59;2.00;29.50
578;DHT22;275;48.492;9.214;2023-02-28T09:46:32;1.50;30.50
578;DHT22;275;48.492;9.214;2023-02-28T09:49:04;1.90;29.90
578;DHT22;275;48.492;9.214;2023-02-28T09:51:45;1.60;30.40
578;DHT22;275;48.492;9.214;2023-02-28T09:54:16;1.50;30.80
578;DHT22;275;48.492;9.214;2023-02-28T09:56:45;2.10;29.90
578;DHT22;275;48.492;9.214;2023-02-28T09:59:23;2.10;29.60
578;DHT22;275;48.492;9.214;2023-02-28T10:01:57;2.20;29.30
578;DHT22;275;48.492;9.214;2023-02-28T10:04:37;2.40;29.40
578;DHT22;275;48.492;9.214;2023-02-28T10:07:15;2.70;28.80
578;DHT22;275;48.492;9.214;2023-02-28T10:09:46;3.00;28.00
578;DHT22;275;48.492;9.214;2023-02-28T10:12:16;2.70;28.70
578;DHT22;275;48.492;9.214;2023-02-28T10:14:45;2.30;29.10
578;DHT22;275;48.492;9.214;2023-02-28T10:17:15;2.10;30.20
578;DHT22;275;48.492;9.214;2023-02-28T10:19:54;1.90;29.90
578;DHT22;275;48.492;9.214;2023-02-28T10:22:25;2.00;30.00
578;DHT22;275;48.492;9.214;2023-02-28T10:24:55;2.40;29.50
578;DHT22;275;48.492;9.214;2023-02-28T10:27:30;2.80;28.60
578;DHT22;275;48.492;9.214;2023-02-28T10:29:59;3.30;27.70
578;DHT22;275;48.492;9.214;2023-02-28T10:32:28;3.10;28.20
578;DHT22;275;48.492;9.214;2023-02-28T10:34:59;3.80;26.90
578;DHT22;275;48.492;9.214;2023-02-28T10:37:27;3.10;27.60
578;DHT22;275;48.492;9.214;2023-02-28T10:39:57;2.60;29.00
578;DHT22;275;48.492;9.214;2023-02-28T10:42:26;2.70;28.70
578;DHT22;275;48.492;9.214;2023-02-28T10:45:11;2.70;28.10
578;DHT22;275;48.492;9.214;2023-02-28T10:47:49;2.80;28.40
578;DHT22;275;48.492;9.214;2023-02-28T10:50:34;4.00;26.70
578;DHT22;275;48.492;9.214;2023-02-28T10:53:16;3.40;27.00
578;DHT22;275;48.492;9.214;2023-02-28T10:55:43;3.50;27.60
578;DHT22;275;48.492;9.214;2023-02-28T10:58:24;4.00;26.70
578;DHT22;275;48.492;9.214;2023-02-28T11:00:52;5.00;25.00
578;DHT22;275;48.492;9.214;2023-02-28T11:03:33;5.10;25.00
578;DHT22;275;48.492;9.214;2023-02-28T11:06:07;5.20;24.60
578;DHT22;275;48.492;9.214;2023-02-28T11:08:34;4.50;25.30
578;DHT22;275;48.492;9.214;2023-02-28T11:11:10;4.30;25.70
578;DHT22;275;48.492;9.214;2023-02-28T11:13:37;4.60;25.50
578;DHT22;275;48.492;9.214;2023-02-28T11:16:06;4.40;26.40
578;DHT22;275;48.492;9.214;2023-02-28T11:18:39;5.10;24.90
578;DHT22;275;48.492;9.214;2023-02-28T11:21:09;5.80;23.80
578;DHT22;275;48.492;9.214;2023-02-28T11:23:40;5.10;24.20
578;DHT22;275;48.492;9.214;2023-02-28T11:26:07;5.50;24.20
578;DHT22;275;48.492;9.214;2023-02-28T11:28:38;5.30;24.60
578;DHT22;275;48.492;9.214;2023-02-28T11:31:15;5.40;23.90
578;DHT22;275;48.492;9.214;2023-02-28T11:33:46;4.60;25.10
578;DHT22;275;48.492;9.214;2023-02-28T11:36:19;4.50;25.60
578;DHT22;275;48.492;9.214;2023-02-28T11:38:47;5.20;25.00
578;DHT22;275;48.492;9.214;2023-02-28T11:41:26;4.70;25.30
578;DHT22;275;48.492;9.214;2023-02-28T11:46:56;4.60;26.10
578;DHT22;275;48.492;9.214;2023-02-28T11:49:32;5.60;23.90
578;DHT22;275;48.492;9.214;2023-02-28T11:52:21;5.60;24.30
578;DHT22;275;48.492;9.214;2023-02-28T11:55:01;5.00;24.90
578;DHT22;275;48.492;9.214;2023-02-28T12:00:40;5.50;24.90
578;DHT22;275;48.492;9.214;2023-02-28T12:03:17;6.60;23.20
578;DHT22;275;48.492;9.214;2023-02-28T12:05:56;7.30;21.80
578;DHT22;275;48.492;9.214;2023-02-28T12:08:41;7.10;21.30
578;DHT22;275;48.492;9.214;2023-02-28T12:11:16;6.70;22.50
578;DHT22;275;48.492;9.214;2023-02-28T12:13:51;6.30;23.20
578;DHT22;275;48.492;9.214;2023-02-28T12:16:32;5.80;23.70
578;DHT22;275;48.492;9.214;2023-02-28T12:19:10;6.50;23.00
578;DHT22;275;48.492;9.214;2023-02-28T12:21:57;7.10;21.90
578;DHT22;275;48.492;9.214;2023-02-28T12:27:35;6.50;22.70
578;DHT22;275;48.492;9.214;2023-02-28T12:30:05;6.10;23.10
578;DHT22;275;48.492;9.214;2023-02-28T12:32:41;6.30;22.80
578;DHT22;275;48.492;9.214;2023-02-28T12:35:13;6.20;23.20
578;DHT22;275;48.492;9.214;2023-02-28T12:37:44;6.50;23.20
578;DHT22;275;48.492;9.214;2023-02-28T12:40:17;7.10;22.00
578;DHT22;275;48.492;9.214;2023-02-28T12:42:49;8.70;20.40
578;DHT22;275;48.492;9.214;2023-02-28T12:45:20;10.10;18.10
578;DHT22;275;48.492;9.214;2023-02-28T12:47:51;10.80;16.90
578;DHT22;275;48.492;9.214;2023-02-28T12:50:19;10.60;17.10
578;DHT22;275;48.492;9.214;2023-02-28T12:52:53;10.00;17.20
578;DHT22;275;48.492;9.214;2023-02-28T12:55:29;10.70;17.10
578;DHT22;275;48.492;9.214;2023-02-28T12:58:05;10.20;17.20
578;DHT22;275;48.492;9.214;2023-02-28T13:00:36;9.20;19.00
578;DHT22;275;48.492;9.214;2023-02-28T13:09:02;7.80;21.30
578;DHT22;275;48.492;9.214;2023-02-28T13:11:31;8.70;19.80
578;DHT22;275;48.492;9.214;2023-02-28T13:14:02;10.20;17.80
578;DHT22;275;48.492;9.214;2023-02-28T13:16:50;9.90;18.40
578;DHT22;275;48.492;9.214;2023-02-28T13:19:20;9.90;18.30
578;DHT22;275;48.492;9.214;2023-02-28T13:21:50;10.00;17.40
578;DHT22;275;48.492;9.214;2023-02-28T13:24:48;10.40;17.30
578;DHT22;275;48.492;9.214;2023-02-28T13:27:35;11.40;15.90
578;DHT22;275;48.492;9.214;2023-02-28T13:36:09;11.00;16.30
578;DHT22;275;48.492;9.214;2023-02-28T13:38:41;13.20;14.70
578;DHT22;275;48.492;9.214;2023-02-28T13:41:42;13.70;13.30
578;DHT22;275;48.492;9.214;2023-02-28T13:44:10;13.60;13.50
578;DHT22;275;48.492;9.214;2023-02-28T13:49:42;10.40;16.40
578;DHT22;275;48.492;9.214;2023-02-28T13:52:15;10.80;16.20
578;DHT22;275;48.492;9.214;2023-02-28T13:57:57;12.50;15.10
578;DHT22;275;48.492;9.214;2023-02-28T14:00:35;12.00;14.90
578;DHT22;275;48.492;9.214;2023-02-28T14:03:18;10.90;15.50
578;DHT22;275;48.492;9.214;2023-02-28T14:06:08;10.40;16.80
578;DHT22;275;48.492;9.214;2023-02-28T14:08:45;9.80;18.00
578;DHT22;275;48.492;9.214;2023-02-28T14:11:25;9.50;18.70
578;DHT22;275;48.492;9.214;2023-02-28T14:13:52;10.40;16.80
578;DHT22;275;48.492;9.214;2023-02-28T14:16:23;10.10;16.80
578;DHT22;275;48.492;9.214;2023-02-28T14:18:56;11.40;16.10
578;DHT22;275;48.492;9.214;2023-02-28T14:21:27;10.30;16.60
578;DHT22;275;48.492;9.214;2023-02-28T14:24:16;9.80;18.20
578;DHT22;275;48.492;9.214;2023-02-28T14:27:00;9.70;18.20
578;DHT22;275;48.492;9.214;2023-02-28T14:29:41;9.80;18.60
578;DHT22;275;48.492;9.214;2023-02-28T14:32:14;8.70;19.80
578;DHT22;275;48.492;9.214;2023-02-28T14:34:50;7.80;20.70
578;DHT22;275;48.492;9.214;2023-02-28T14:37:23;7.20;21.50
578;DHT22;275;48.492;9.214;2023-02-28T14:39:53;7.30;21.40
578;DHT22;275;48.492;9.214;2023-02-28T14:42:32;6.60;22.70
578;DHT22;275;48.492;9.214;2023-02-28T14:45:00;6.60;22.90
578;DHT22;275;48.492;9.214;2023-02-28T14:47:30;6.90;22.70
578;DHT22;275;48.492;9.214;2023-02-28T14:49:58;7.00;22.00
578;DHT22;275;48.492;9.214;2023-02-28T14:52:27;6.50;23.10
578;DHT22;275;48.492;9.214;2023-02-28T14:54:58;6.30;22.80
578;DHT22;275;48.492;9.214;2023-02-28T14:57:27;6.30;22.90
578;DHT22;275;48.492;9.214;2023-02-28T15:00:03;6.30;23.20
578;DHT22;275;48.492;9.214;2023-02-28T15:02:36;6.00;23.30
578;DHT22;275;48.492;9.214;2023-02-28T15:08:05;6.40;22.80
578;DHT22;275;48.492;9.214;2023-02-28T15:10:34;6.30;23.00
578;DHT22;275;48.492;9.214;2023-02-28T15:13:04;6.50;23.10
578;DHT22;275;48.492;9.214;2023-02-28T15:15:41;6.30;23.20
578;DHT22;275;48.492;9.214;2023-02-28T15:18:16;6.70;22.70
578;DHT22;275;48.492;9.214;2023-02-28T15:20:47;7.40;21.80
578;DHT22;275;48.492;9.214;2023-02-28T15:23:15;7.40;22.00
578;DHT22;275;48.492;9.214;2023-02-28T15:25:43;7.70;21.50
578;DHT22;275;48.492;9.214;2023-02-28T15:28:14;7.80;21.00
578;DHT22;275;48.492;9.214;2023-02-28T15:30:52;6.60;22.40
578;DHT22;275;48.492;9.214;2023-02-28T15:33:21;7.00;22.50
578;DHT22;275;48.492;9.214;2023-02-28T15:35:48;7.10;22.20
578;DHT22;275;48.492;9.214;2023-02-28T15:38:17;7.00;22.10
578;DHT22;275;48.492;9.214;2023-02-28T15:40:51;6.60;22.60
578;DHT22;275;48.492;9.214;2023-02-28T15:43:25;6.30;23.10
578;DHT22;275;48.492;9.214;2023-02-28T15:45:56;6.30;23.30
578;DHT22;275;48.492;9.214;2023-02-28T15:48:25;6.30;23.20
578;DHT22;275;48.492;9.214;2023-02-28T15:50:54;6.00;23.80
578;DHT22;275;48.492;9.214;2023-02-28T15:53:24;6.00;24.20
578;DHT22;275;48.492;9.214;2023-02-28T15:56:00;6.00;24.20
578;DHT22;275;48.492;9.214;2023-02-28T15:58:28;6.00;23.90
578;DHT22;275;48.492;9.214;2023-02-28T16:01:05;6.20;23.40
578;DHT22;275;48.492;9.214;2023-02-28T16:03:40;6.40;23.70
578;DHT22;275;48.492;9.214;2023-02-28T16:06:09;6.10;23.90
578;DHT22;275;48.492;9.214;2023-02-28T16:08:48;6.10;23.90
578;DHT22;275;48.492;9.214;2023-02-28T16:11:18;6.50;23.50
578;DHT22;275;48.492;9.214;2023-02-28T16:13:46;6.40;23.20
578;DHT22;275;48.492;9.214;2023-02-28T16:16:16;6.20;23.50
578;DHT22;275;48.492;9.214;2023-02-28T16:18:43;6.40;23.40
578;DHT22;275;48.492;9.214;2023-02-28T16:21:10;6.90;22.80
578;DHT22;275;48.492;9.214;2023-02-28T16:23:37;6.60;22.80
578;DHT22;275;48.492;9.214;2023-02-28T16:26:04;6.60;23.10
578;DHT22;275;48.492;9.214;2023-02-28T16:28:35;7.00;22.80
578;DHT22;275;48.492;9.214;2023-02-28T16:31:05;6.80;23.00
578;DHT22;275;48.492;9.214;2023-02-28T16:33:34;6.90;23.10
578;DHT22;275;48.492;9.214;2023-02-28T16:36:01;6.70;23.00
578;DHT22;275;48.492;9.214;2023-02-28T16:38:28;6.60;23.40
578;DHT22;275;48.492;9.214;2023-02-28T16:40:56;6.40;23.80
578;DHT22;275;48.492;9.214;2023-02-28T16:43:26;6.30;23.90
578;DHT22;275;48.492;9.214;2023-02-28T16:45:56;6.30;24.00
578;DHT22;275;48.492;9.214;2023-02-28T16:48:24;6.30;23.90
578;DHT22;275;48.492;9.214;2023-02-28T16:50:51;6.30;24.00
578;DHT22;275;48.492;9.214;2023-02-28T16:53:18;6.20;23.50
578;DHT22;275;48.492;9.214;2023-02-28T16:55:45;5.80;24.80
578;DHT22;275;48.492;9.214;2023-02-28T16:58:15;5.70;24.40
578;DHT22;275;48.492;9.214;2023-02-28T17:00:42;5.90;24.10
578;DHT22;275;48.492;9.214;2023-02-28T17:03:20;6.00;24.00
578;DHT22;275;48.492;9.214;2023-02-28T17:05:48;5.80;24.40
578;DHT22;275;48.492;9.214;2023-02-28T17:08:15;5.90;24.20
578;DHT22;275;48.492;9.214;2023-02-28T17:10:42;5.80;24.20
578;DHT22;275;48.492;9.214;2023-02-28T17:13:09;5.80;24.10
578;DHT22;275;48.492;9.214;2023-02-28T17:15:37;6.20;23.70
578;DHT22;275;48.492;9.214;2023-02-28T17:18:05;6.20;23.60
578;DHT22;275;48.492;9.214;2023-02-28T17:20:33;6.40;23.40
578;DHT22;275;48.492;9.214;2023-02-28T17:23:00;5.90;24.10
578;DHT22;275;48.492;9.214;2023-02-28T17:25:27;6.10;23.80
578;DHT22;275;48.492;9.214;2023-02-28T17:27:54;5.90;23.80
578;DHT22;275;48.492;9.214;2023-02-28T17:30:23;6.10;24.00
578;DHT22;275;48.492;9.214;2023-02-28T17:32:49;6.20;23.50
578;DHT22;275;48.492;9.214;2023-02-28T17:35:16;6.40;23.40
578;DHT22;275;48.492;9.214;2023-02-28T17:37:45;6.20;24.00
578;DHT22;275;48.492;9.214;2023-02-28T17:40:14;5.80;25.40
578;DHT22;275;48.492;9.214;2023-02-28T17:42:41;5.40;25.50
578;DHT22;275;48.492;9.214;2023-02-28T17:45:08;5.50;25.60
578;DHT22;275;48.492;9.214;2023-02-28T17:47:35;5.60;25.30
578;DHT22;275;48.492;9.214;2023-02-28T17:50:02;5.70;25.20